createdAt,value
2023-05-14T00:01:24.365Z,7.82
2023-05-14T00:03:51.964Z,8.32
2023-05-14T00:06:19.300Z,6.65
2023-05-14T00:08:46.388Z,5.90
2023-05-14T00:11:13.569Z,6.15
2023-05-14T00:13:40.588Z,4.63
2023-05-14T00:16:07.719Z,5.90
2023-05-14T00:18:34.996Z,8.80
2023-05-14T00:21:02.025Z,8.18
2023-05-14T00:23:29.075Z,4.85
2023-05-14T00:25:56.356Z,6.50
2023-05-14T00:28:23.443Z,11.13
2023-05-14T00:30:51.240Z,8.60
2023-05-14T00:33:20.065Z,7.37
2023-05-14T00:35:47.207Z,5.60
2023-05-14T00:38:17.289Z,10.35
2023-05-14T00:40:46.029Z,8.13
2023-05-14T00:43:13.322Z,5.97
2023-05-14T00:45:40.941Z,8.23
2023-05-14T00:48:08.513Z,5.93
2023-05-14T00:50:36.047Z,6.45
2023-05-14T00:53:03.210Z,7.75
2023-05-14T00:55:31.214Z,7.93
2023-05-14T00:57:59.904Z,5.88
2023-05-14T01:00:27.148Z,10.38
2023-05-14T01:02:54.393Z,4.78
2023-05-14T01:05:25.883Z,7.00
2023-05-14T01:08:09.593Z,8.45
2023-05-14T01:10:49.928Z,6.85
2023-05-14T01:15:51.693Z,4.28
2023-05-14T01:18:19.719Z,7.38
2023-05-14T01:20:51.712Z,9.18
2023-05-14T01:23:18.810Z,6.70
2023-05-14T01:25:46.401Z,4.70
2023-05-14T01:28:20.798Z,6.70
2023-05-14T01:31:17.230Z,4.80
2023-05-14T01:33:47.492Z,4.75
2023-05-14T01:36:14.664Z,10.88
2023-05-14T01:38:45.909Z,7.13
2023-05-14T01:41:15.087Z,9.75
2023-05-14T01:43:42.655Z,4.97
2023-05-14T01:46:10.113Z,7.65
2023-05-14T01:48:38.004Z,5.47
2023-05-14T01:51:05.177Z,5.78
2023-05-14T01:53:35.042Z,7.32
2023-05-14T01:56:02.658Z,7.93
2023-05-14T01:58:29.897Z,5.03
2023-05-14T02:00:57.007Z,4.25
2023-05-14T02:03:24.127Z,6.25
2023-05-14T02:05:51.256Z,5.35
2023-05-14T02:08:18.347Z,5.68
2023-05-14T02:10:45.568Z,5.40
2023-05-14T02:13:12.649Z,4.75
2023-05-14T02:15:39.875Z,7.15
2023-05-14T02:18:07.492Z,5.28
2023-05-14T02:20:34.715Z,4.97
2023-05-14T02:23:01.778Z,7.30
2023-05-14T02:25:28.827Z,6.05
2023-05-14T02:27:55.889Z,6.57
2023-05-14T02:30:23.277Z,3.50
2023-05-14T02:32:50.640Z,5.60
2023-05-14T02:35:17.858Z,4.40
2023-05-14T02:37:45.009Z,4.82
2023-05-14T02:40:12.232Z,8.23
2023-05-14T02:42:39.438Z,7.13
2023-05-14T02:45:07.127Z,6.03
2023-05-14T02:47:37.480Z,7.50
2023-05-14T02:52:33.537Z,5.53
2023-05-14T02:55:00.702Z,4.13
2023-05-14T02:57:27.981Z,4.65
2023-05-14T02:59:55.130Z,7.15
2023-05-14T03:02:22.670Z,4.05
2023-05-14T03:04:50.742Z,6.20
2023-05-14T03:07:17.868Z,5.00
2023-05-14T03:09:45.384Z,8.75
2023-05-14T03:12:14.503Z,4.57
2023-05-14T03:14:41.762Z,6.15
2023-05-14T03:17:09.134Z,3.78
2023-05-14T03:19:36.297Z,5.95
2023-05-14T03:22:03.684Z,7.65
2023-05-14T03:24:31.628Z,7.40
2023-05-14T03:26:58.612Z,8.05
2023-05-14T03:29:25.770Z,5.53
2023-05-14T03:31:53.171Z,5.63
2023-05-14T03:34:20.393Z,5.60
2023-05-14T03:36:47.584Z,4.35
2023-05-14T03:39:20.004Z,5.85
2023-05-14T03:41:48.313Z,6.90
2023-05-14T03:44:15.829Z,5.22
2023-05-14T03:46:42.924Z,7.53
2023-05-14T03:49:10.674Z,6.55
2023-05-14T03:51:37.890Z,4.95
2023-05-14T03:54:06.695Z,7.53
2023-05-14T03:56:33.874Z,4.32
2023-05-14T03:59:00.945Z,7.10
2023-05-14T04:01:28.104Z,3.88
2023-05-14T04:03:55.645Z,6.15
2023-05-14T04:06:22.972Z,5.93
2023-05-14T04:08:50.007Z,5.97
2023-05-14T04:11:17.142Z,6.75
2023-05-14T04:13:44.182Z,4.78
2023-05-14T04:16:11.421Z,5.47
2023-05-14T04:18:38.589Z,4.88
2023-05-14T04:21:05.863Z,6.88
2023-05-14T04:23:32.878Z,6.50
2023-05-14T04:26:00.175Z,6.40
2023-05-14T04:28:27.248Z,3.00
2023-05-14T04:30:54.472Z,6.25
2023-05-14T04:33:21.509Z,8.10
2023-05-14T04:35:48.572Z,3.17
2023-05-14T04:38:15.819Z,4.22
2023-05-14T04:40:42.948Z,3.28
2023-05-14T04:43:10.848Z,8.77
2023-05-14T04:45:37.998Z,2.97
2023-05-14T04:48:06.065Z,4.40
2023-05-14T04:50:33.175Z,5.35
2023-05-14T04:53:00.333Z,5.20
2023-05-14T04:55:27.780Z,8.23
2023-05-14T04:57:55.020Z,3.40
2023-05-14T05:00:22.886Z,2.92
2023-05-14T05:02:50.202Z,5.47
2023-05-14T05:05:17.362Z,4.20
2023-05-14T05:07:44.435Z,3.88
2023-05-14T05:10:11.511Z,4.53
2023-05-14T05:12:38.758Z,10.02
2023-05-14T05:15:06.445Z,5.95
2023-05-14T05:17:35.962Z,3.53
2023-05-14T05:20:04.892Z,2.60
2023-05-14T05:22:32.176Z,3.53
2023-05-14T05:24:59.953Z,4.63
2023-05-14T05:27:27.150Z,7.22
2023-05-14T05:29:54.201Z,4.13
2023-05-14T05:32:21.419Z,2.90
2023-05-14T05:34:48.492Z,3.28
2023-05-14T05:37:15.622Z,3.58
2023-05-14T05:39:42.848Z,2.75
2023-05-14T05:42:10.634Z,8.80
2023-05-14T05:44:37.798Z,3.45
2023-05-14T05:47:05.264Z,3.65
2023-05-14T05:49:32.514Z,6.25
2023-05-14T05:51:59.619Z,5.88
2023-05-14T05:54:27.369Z,3.58
2023-05-14T05:56:54.459Z,10.23
2023-05-14T05:59:21.768Z,2.97
2023-05-14T06:01:48.873Z,3.03
2023-05-14T06:04:16.204Z,8.30
2023-05-14T06:06:43.268Z,5.80
2023-05-14T06:09:10.503Z,3.67
2023-05-14T06:11:37.520Z,3.10
2023-05-14T06:14:04.823Z,2.63
2023-05-14T06:16:32.070Z,4.13
2023-05-14T06:18:59.400Z,2.85
2023-05-14T06:21:26.650Z,6.25
2023-05-14T06:23:53.774Z,8.07
2023-05-14T06:26:21.388Z,3.53
2023-05-14T06:28:48.527Z,2.38
2023-05-14T06:31:15.709Z,6.60
2023-05-14T06:33:42.783Z,2.00
2023-05-14T06:36:10.226Z,4.32
2023-05-14T06:38:37.667Z,4.82
2023-05-14T06:41:04.875Z,4.07
2023-05-14T06:43:32.097Z,7.30
2023-05-14T06:45:59.233Z,6.15
2023-05-14T06:48:27.971Z,5.35
2023-05-14T06:50:55.731Z,5.15
2023-05-14T06:53:23.038Z,4.32
2023-05-14T06:55:50.212Z,5.03
2023-05-14T06:58:17.283Z,2.28
2023-05-14T07:00:44.487Z,1.85
2023-05-14T07:03:11.644Z,4.65
2023-05-14T07:05:40.808Z,6.03
2023-05-14T07:08:07.947Z,5.32
2023-05-14T07:10:35.068Z,2.97
2023-05-14T07:13:03.375Z,4.80
2023-05-14T07:15:30.522Z,1.77
2023-05-14T07:17:57.722Z,3.80
2023-05-14T07:20:25.320Z,3.00
2023-05-14T07:22:53.236Z,3.00
2023-05-14T07:25:20.402Z,6.22
2023-05-14T07:27:47.540Z,2.90
2023-05-14T07:30:15.288Z,2.42
2023-05-14T07:32:42.742Z,6.65
2023-05-14T07:35:11.822Z,3.25
2023-05-14T07:37:39.162Z,4.25
2023-05-14T07:40:07.214Z,4.65
2023-05-14T07:42:37.095Z,3.60
2023-05-14T07:45:06.201Z,2.55
2023-05-14T07:47:34.806Z,5.55
2023-05-14T07:50:02.386Z,4.03
2023-05-14T07:52:33.666Z,4.78
2023-05-14T07:55:01.588Z,3.42
2023-05-14T07:57:32.902Z,5.13
2023-05-14T08:00:00.054Z,4.63
2023-05-14T08:02:28.476Z,2.72
2023-05-14T08:04:55.744Z,5.35
2023-05-14T08:07:22.930Z,2.28
2023-05-14T08:09:49.931Z,6.80
2023-05-14T08:12:17.101Z,3.28
2023-05-14T08:14:44.227Z,4.50
2023-05-14T08:17:11.564Z,1.77
2023-05-14T08:19:38.659Z,4.97
2023-05-14T08:22:06.089Z,4.00
2023-05-14T08:24:33.097Z,8.68
2023-05-14T08:27:00.627Z,1.60
2023-05-14T08:29:27.893Z,2.35
2023-05-14T08:31:55.166Z,7.68
2023-05-14T08:34:22.660Z,7.35
2023-05-14T08:36:49.657Z,6.22
2023-05-14T08:39:16.713Z,1.98
2023-05-14T08:41:45.270Z,4.80
2023-05-14T08:44:18.595Z,3.97
2023-05-14T08:46:46.169Z,5.03
2023-05-14T08:49:40.934Z,4.93
2023-05-14T08:52:09.811Z,5.85
2023-05-14T08:54:37.002Z,4.95
2023-05-14T08:57:05.299Z,3.30
2023-05-14T08:59:32.532Z,7.07
2023-05-14T09:02:04.585Z,4.35
2023-05-14T09:04:33.182Z,4.38
2023-05-14T09:07:02.328Z,11.15
2023-05-14T09:09:29.793Z,3.30
2023-05-14T09:11:56.931Z,9.00
2023-05-14T09:14:24.441Z,6.13
2023-05-14T09:16:51.944Z,2.97
2023-05-14T09:19:19.915Z,4.20
2023-05-14T09:21:48.811Z,6.00
2023-05-14T09:24:21.288Z,3.85
2023-05-14T09:26:53.982Z,4.53
2023-05-14T09:29:21.254Z,8.63
2023-05-14T09:31:51.904Z,4.28
2023-05-14T09:34:30.756Z,6.72
2023-05-14T09:37:02.886Z,8.52
2023-05-14T09:39:31.329Z,2.58
2023-05-14T09:41:59.050Z,5.05
2023-05-14T09:44:26.638Z,2.40
2023-05-14T09:46:54.597Z,8.90
2023-05-14T09:49:22.512Z,11.00
2023-05-14T09:51:50.839Z,2.55
2023-05-14T09:54:17.983Z,3.40
2023-05-14T09:56:45.158Z,3.65
2023-05-14T09:59:12.389Z,6.72
2023-05-14T10:01:42.792Z,5.97
2023-05-14T10:04:11.404Z,10.18
2023-05-14T10:06:39.634Z,11.52
2023-05-14T10:09:14.177Z,6.70
2023-05-14T10:11:45.395Z,12.77
2023-05-14T10:14:39.516Z,5.25
2023-05-14T10:17:07.993Z,4.88
2023-05-14T10:19:36.565Z,5.68
2023-05-14T10:25:03.368Z,4.55
2023-05-14T10:27:32.183Z,3.80
2023-05-14T10:29:59.411Z,2.78
2023-05-14T10:32:26.699Z,2.97
2023-05-14T10:34:55.839Z,7.45
2023-05-14T10:37:26.090Z,2.22
2023-05-14T10:40:02.355Z,2.30
2023-05-14T10:42:44.685Z,5.30
2023-05-14T10:45:14.327Z,5.22
2023-05-14T10:47:48.931Z,3.38
2023-05-14T10:50:16.438Z,3.55
2023-05-14T10:52:44.651Z,4.70
2023-05-14T10:55:16.959Z,2.95
2023-05-14T10:57:46.388Z,4.15
2023-05-14T11:00:14.916Z,2.97
2023-05-14T11:02:44.452Z,3.05
2023-05-14T11:05:17.821Z,3.53
2023-05-14T11:07:47.833Z,8.43
2023-05-14T11:10:17.118Z,8.13
2023-05-14T11:12:46.912Z,4.33
2023-05-14T11:15:19.629Z,1.63
2023-05-14T11:17:48.876Z,1.90
2023-05-14T11:20:17.149Z,16.98
2023-05-14T11:22:46.040Z,4.28
2023-05-14T11:25:15.033Z,7.80
2023-05-14T11:27:44.579Z,5.53
2023-05-14T11:30:16.733Z,3.80
2023-05-14T11:32:48.598Z,6.85
2023-05-14T11:35:17.536Z,3.17
2023-05-14T11:37:52.375Z,5.47
2023-05-14T11:40:19.843Z,7.63
2023-05-14T11:42:47.200Z,4.28
2023-05-14T11:45:24.602Z,4.10
2023-05-14T11:47:53.719Z,6.72
2023-05-14T11:50:24.820Z,2.73
2023-05-14T11:52:57.117Z,4.93
2023-05-14T11:55:24.432Z,2.70
2023-05-14T11:57:51.873Z,4.00
2023-05-14T12:00:22.187Z,6.00
2023-05-14T12:02:50.295Z,5.55
2023-05-14T12:05:18.706Z,4.00
2023-05-14T12:07:46.403Z,5.18
2023-05-14T12:10:14.129Z,8.32
2023-05-14T12:12:44.959Z,5.63
2023-05-14T12:15:13.709Z,5.68
2023-05-14T12:17:41.758Z,5.82
2023-05-14T12:20:13.725Z,4.47
2023-05-14T12:22:42.224Z,10.10
2023-05-14T12:25:13.862Z,6.22
2023-05-14T12:27:44.910Z,3.60
2023-05-14T12:30:21.440Z,3.60
2023-05-14T12:32:52.857Z,5.78
2023-05-14T12:35:21.603Z,6.13
2023-05-14T12:37:48.849Z,4.38
2023-05-14T12:40:15.928Z,8.20
2023-05-14T12:42:43.093Z,7.30
2023-05-14T12:45:11.332Z,6.78
2023-05-14T12:47:38.501Z,6.80
2023-05-14T12:50:06.376Z,2.13
2023-05-14T12:52:38.301Z,4.68
2023-05-14T12:55:07.890Z,3.97
2023-05-14T12:57:35.755Z,5.55
2023-05-14T13:00:07.185Z,7.13
2023-05-14T13:02:42.741Z,3.95
2023-05-14T13:05:12.307Z,3.55
2023-05-14T13:07:39.612Z,5.80
2023-05-14T13:10:07.239Z,4.25
2023-05-14T13:12:34.694Z,4.70
2023-05-14T13:15:02.098Z,11.32
2023-05-14T13:17:33.880Z,3.33
2023-05-14T13:20:01.109Z,9.25
2023-05-14T13:22:28.252Z,4.78
2023-05-14T13:24:55.471Z,4.70
2023-05-14T13:27:22.634Z,4.15
2023-05-14T13:29:49.862Z,3.75
2023-05-14T13:32:16.990Z,3.38
2023-05-14T13:34:44.304Z,3.78
2023-05-14T13:37:11.773Z,3.38
2023-05-14T13:39:40.897Z,5.38
2023-05-14T13:42:08.665Z,8.35
2023-05-14T13:44:36.364Z,4.90
2023-05-14T13:47:04.187Z,4.78
2023-05-14T13:49:31.232Z,7.55
2023-05-14T13:51:58.510Z,8.50
2023-05-14T13:54:25.694Z,8.25
2023-05-14T13:56:52.764Z,24.80
2023-05-14T13:59:20.682Z,5.82
2023-05-14T14:01:49.756Z,7.75
2023-05-14T14:04:17.106Z,13.07
2023-05-14T14:06:44.266Z,6.57
2023-05-14T14:09:13.599Z,7.72
2023-05-14T14:11:41.263Z,12.60
2023-05-14T14:14:08.440Z,8.45
2023-05-14T14:16:36.391Z,7.90
2023-05-14T14:19:03.930Z,5.68
2023-05-14T14:21:31.942Z,2.95
2023-05-14T14:23:59.260Z,6.13
2023-05-14T14:26:28.019Z,4.55
2023-05-14T14:28:55.773Z,8.57
2023-05-14T14:31:23.157Z,6.00
2023-05-14T14:33:50.488Z,6.63
2023-05-14T14:36:17.871Z,6.63
2023-05-14T14:38:44.911Z,6.28
2023-05-14T14:41:12.423Z,2.70
2023-05-14T14:43:41.190Z,4.22
2023-05-14T14:46:09.537Z,9.88
2023-05-14T14:48:40.109Z,6.38
2023-05-14T14:51:08.668Z,6.60
2023-05-14T14:53:37.318Z,7.15
2023-05-14T14:56:05.033Z,10.35
2023-05-14T14:58:32.864Z,7.28
2023-05-14T15:01:01.298Z,3.55
2023-05-14T15:03:30.080Z,11.75
2023-05-14T15:05:57.499Z,7.18
2023-05-14T15:08:28.666Z,6.30
2023-05-14T15:10:56.937Z,4.63
2023-05-14T15:13:24.759Z,8.38
2023-05-14T15:15:52.713Z,10.63
2023-05-14T15:18:20.104Z,12.85
2023-05-14T15:20:47.362Z,10.07
2023-05-14T15:23:14.705Z,9.45
2023-05-14T15:25:42.084Z,7.20
2023-05-14T15:28:09.254Z,10.98
2023-05-14T15:30:36.591Z,9.35
2023-05-14T15:33:03.952Z,4.05
2023-05-14T15:35:31.126Z,6.10
2023-05-14T15:37:58.304Z,8.55
2023-05-14T15:40:27.628Z,10.23
2023-05-14T15:42:55.094Z,6.27
2023-05-14T15:45:22.247Z,5.20
2023-05-14T15:47:49.533Z,12.68
2023-05-14T15:50:16.856Z,8.25
2023-05-14T15:52:44.031Z,12.65
2023-05-14T15:55:11.189Z,11.55
2023-05-14T15:57:38.334Z,8.48
2023-05-14T16:00:12.266Z,6.78
2023-05-14T16:02:39.678Z,5.10
2023-05-14T16:05:08.444Z,7.55
2023-05-14T16:07:36.564Z,8.13
2023-05-14T16:10:04.111Z,6.00
2023-05-14T16:12:33.731Z,7.03
2023-05-14T16:15:01.232Z,5.65
2023-05-14T16:17:33.977Z,6.05
2023-05-14T16:20:01.368Z,9.40
2023-05-14T16:22:34.880Z,5.57
2023-05-14T16:25:03.571Z,10.88
2023-05-14T16:27:34.427Z,12.20
2023-05-14T16:30:01.536Z,14.38
2023-05-14T16:32:34.458Z,14.32
2023-05-14T16:35:02.983Z,9.48
2023-05-14T16:37:33.578Z,10.65
2023-05-14T16:40:00.673Z,6.97
2023-05-14T16:42:28.255Z,10.40
2023-05-14T16:44:55.436Z,8.65
2023-05-14T16:47:22.764Z,8.00
2023-05-14T16:49:49.821Z,10.27
2023-05-14T16:52:16.933Z,17.77
2023-05-14T16:54:44.003Z,9.43
2023-05-14T16:57:11.399Z,8.25
2023-05-14T16:59:38.616Z,9.98
2023-05-14T17:02:06.241Z,10.85
2023-05-14T17:04:38.664Z,16.17
2023-05-14T17:07:06.158Z,10.82
2023-05-14T17:09:33.269Z,17.15
2023-05-14T17:12:00.790Z,20.48
2023-05-14T17:14:27.922Z,8.40
2023-05-14T17:16:55.140Z,13.27
2023-05-14T17:19:22.448Z,11.48
2023-05-14T17:21:49.628Z,18.33
2023-05-14T17:24:16.740Z,12.20
2023-05-14T17:26:44.215Z,10.93
2023-05-14T17:29:11.186Z,14.10
2023-05-14T17:31:38.492Z,11.20
2023-05-14T17:34:05.789Z,10.35
2023-05-14T17:36:32.899Z,12.43
2023-05-14T17:38:59.999Z,14.98
2023-05-14T17:41:27.206Z,12.25
2023-05-14T17:43:54.317Z,12.73
2023-05-14T17:46:21.695Z,13.38
2023-05-14T17:48:48.820Z,14.52
2023-05-14T17:51:16.077Z,9.55
2023-05-14T17:53:43.061Z,15.45
2023-05-14T17:56:10.358Z,14.30
2023-05-14T17:58:37.479Z,13.05
2023-05-14T18:01:06.171Z,11.52
2023-05-14T18:03:33.862Z,13.82
2023-05-14T18:06:01.083Z,10.65
2023-05-14T18:08:28.100Z,16.30
2023-05-14T18:10:55.217Z,12.75
2023-05-14T18:13:22.395Z,13.63
2023-05-14T18:15:51.660Z,14.13
2023-05-14T18:18:18.913Z,15.90
2023-05-14T18:20:45.930Z,13.85
2023-05-14T18:23:13.211Z,16.98
2023-05-14T18:25:40.379Z,19.15
2023-05-14T18:28:07.584Z,13.82
2023-05-14T18:30:34.806Z,14.32
2023-05-14T18:33:01.879Z,8.43
2023-05-14T18:35:29.155Z,9.55
2023-05-14T18:37:56.314Z,9.00
2023-05-14T18:40:23.335Z,9.55
2023-05-14T18:42:50.557Z,11.93
2023-05-14T18:45:17.743Z,9.82
2023-05-14T18:47:44.799Z,7.97
2023-05-14T18:50:11.896Z,11.63
2023-05-14T18:52:38.954Z,15.63
2023-05-14T18:55:06.301Z,7.43
2023-05-14T18:57:33.909Z,7.70
2023-05-14T19:00:05.357Z,6.82
2023-05-14T19:02:34.992Z,12.80
2023-05-14T19:05:02.468Z,9.55
2023-05-14T19:07:31.985Z,9.07
2023-05-14T19:09:59.229Z,15.65
2023-05-14T19:12:26.969Z,11.48
2023-05-14T19:14:53.996Z,12.77
2023-05-14T19:17:21.308Z,7.15
2023-05-14T19:19:48.350Z,13.80
2023-05-14T19:22:15.504Z,11.70
2023-05-14T19:24:42.734Z,17.35
2023-05-14T19:27:10.186Z,10.07
2023-05-14T19:29:37.232Z,9.73
2023-05-14T19:32:04.879Z,9.57
2023-05-14T19:34:32.035Z,8.65
2023-05-14T19:36:59.185Z,11.98
2023-05-14T19:39:26.337Z,9.27
2023-05-14T19:41:53.460Z,8.63
2023-05-14T19:44:20.495Z,6.53
2023-05-14T19:46:47.648Z,6.57
2023-05-14T19:49:14.874Z,12.50
2023-05-14T19:51:41.953Z,11.27
2023-05-14T19:54:10.067Z,11.10
2023-05-14T19:56:38.475Z,12.52
2023-05-14T19:59:05.568Z,11.73
2023-05-14T20:01:34.474Z,8.20
2023-05-14T20:04:02.456Z,10.75
2023-05-14T20:06:29.843Z,19.73
2023-05-14T20:08:56.990Z,15.63
2023-05-14T20:11:24.112Z,7.30
2023-05-14T20:13:51.166Z,13.68
2023-05-14T20:16:18.871Z,11.05
2023-05-14T20:18:46.179Z,10.32
2023-05-14T20:21:13.307Z,10.95
2023-05-14T20:23:40.589Z,11.30
2023-05-14T20:26:07.713Z,9.77
2023-05-14T20:28:34.816Z,17.23
2023-05-14T20:31:04.038Z,13.90
2023-05-14T20:33:31.310Z,14.32
2023-05-14T20:35:58.520Z,14.60
2023-05-14T20:38:29.345Z,12.90
2023-05-14T20:40:57.020Z,10.68
2023-05-14T20:43:24.096Z,12.43
2023-05-14T20:45:51.141Z,10.52
2023-05-14T20:48:20.206Z,11.65
2023-05-14T20:50:47.474Z,16.75
2023-05-14T20:53:14.773Z,12.85
2023-05-14T20:55:42.098Z,22.58
2023-05-14T20:58:09.238Z,16.23
2023-05-14T21:00:36.341Z,24.38
2023-05-14T21:03:03.733Z,24.05
2023-05-14T21:05:30.872Z,10.70
2023-05-14T21:07:57.874Z,9.77
2023-05-14T21:10:25.725Z,12.65
2023-05-14T21:12:53.227Z,9.68
2023-05-14T21:15:20.730Z,11.25
2023-05-14T21:17:47.779Z,8.68
2023-05-14T21:20:15.717Z,10.02
2023-05-14T21:22:42.772Z,9.82
2023-05-14T21:25:10.091Z,12.27
2023-05-14T21:27:37.398Z,9.25
2023-05-14T21:30:04.937Z,8.93
2023-05-14T21:32:33.580Z,15.27
2023-05-14T21:35:00.950Z,13.90
2023-05-14T21:37:28.407Z,16.85
2023-05-14T21:39:55.607Z,10.70
2023-05-14T21:42:22.818Z,10.25
2023-05-14T21:44:50.012Z,11.55
2023-05-14T21:47:17.281Z,11.02
2023-05-14T21:49:44.355Z,12.15
2023-05-14T21:52:11.382Z,10.73
2023-05-14T21:54:38.545Z,10.88
2023-05-14T21:57:06.572Z,13.95
2023-05-14T21:59:34.189Z,11.35
2023-05-14T22:04:31.220Z,10.43
2023-05-14T22:06:58.497Z,11.13
2023-05-14T22:09:26.017Z,10.70
2023-05-14T22:11:53.132Z,11.48
2023-05-14T22:14:20.135Z,9.07
2023-05-14T22:16:47.497Z,9.20
2023-05-14T22:19:16.708Z,9.05
2023-05-14T22:21:43.887Z,14.65
2023-05-14T22:24:10.977Z,10.27
2023-05-14T22:26:37.986Z,12.90
2023-05-14T22:29:05.153Z,7.50
2023-05-14T22:31:32.249Z,14.48
2023-05-14T22:33:59.326Z,11.18
2023-05-14T22:36:26.458Z,17.23
2023-05-14T22:38:53.549Z,14.68
2023-05-14T22:41:22.296Z,15.07
2023-05-14T22:43:50.967Z,12.48
2023-05-14T22:46:18.202Z,14.93
2023-05-14T22:48:45.341Z,11.68
2023-05-14T22:51:12.747Z,12.73
2023-05-14T22:53:39.864Z,11.80
2023-05-14T22:56:07.136Z,13.85
2023-05-14T22:58:34.129Z,12.07
2023-05-14T23:01:05.348Z,12.65
2023-05-14T23:03:32.542Z,14.00
2023-05-14T23:05:59.663Z,16.08
2023-05-14T23:08:26.715Z,16.55
2023-05-14T23:10:53.934Z,14.80
2023-05-14T23:13:21.249Z,13.52
2023-05-14T23:15:48.906Z,17.05
2023-05-14T23:18:16.090Z,15.35
2023-05-14T23:20:43.901Z,15.63
2023-05-14T23:23:11.366Z,16.38
2023-05-14T23:25:38.545Z,15.13
2023-05-14T23:28:05.814Z,15.55
2023-05-14T23:30:32.828Z,16.88
2023-05-14T23:33:00.373Z,16.55
2023-05-14T23:35:27.760Z,15.23
2023-05-14T23:37:55.436Z,18.30
2023-05-14T23:40:22.543Z,16.10
2023-05-14T23:42:49.607Z,22.27
2023-05-14T23:45:17.077Z,16.77
2023-05-14T23:47:44.272Z,20.13
2023-05-14T23:50:11.520Z,15.90
2023-05-14T23:52:38.536Z,18.13
2023-05-14T23:55:06.550Z,18.02
2023-05-14T23:57:33.829Z,20.55
